createdAt,value
2022-08-04T00:00:25.815Z,1009.72
2022-08-04T00:01:25.837Z,1009.71
2022-08-04T00:02:25.792Z,1009.73
2022-08-04T00:03:25.786Z,1009.74
2022-08-04T00:04:25.778Z,1009.69
2022-08-04T00:05:25.805Z,1009.74
2022-08-04T00:06:25.751Z,1009.75
2022-08-04T00:07:44.480Z,1009.75
2022-08-04T00:08:26.825Z,1009.78
2022-08-04T00:09:25.726Z,1009.76
2022-08-04T00:10:25.707Z,1009.72
2022-08-04T00:11:25.689Z,1009.75
2022-08-04T00:12:31.136Z,1009.71
2022-08-04T00:13:26.676Z,1009.70
2022-08-04T00:14:25.668Z,1009.69
2022-08-04T00:15:25.645Z,1009.65
2022-08-04T00:16:25.635Z,1009.68
2022-08-04T00:17:26.658Z,1009.65
2022-08-04T00:18:25.613Z,1009.67
2022-08-04T00:19:25.621Z,1009.72
2022-08-04T00:20:25.594Z,1009.69
2022-08-04T00:21:25.581Z,1009.66
2022-08-04T00:22:25.573Z,1009.67
2022-08-04T00:23:25.557Z,1009.66
2022-08-04T00:24:25.559Z,1009.69
2022-08-04T00:25:25.538Z,1009.70
2022-08-04T00:26:26.357Z,1009.66
2022-08-04T00:27:25.697Z,1009.69
2022-08-04T00:28:25.503Z,1009.70
2022-08-04T00:29:25.502Z,1009.69
2022-08-04T00:30:25.491Z,1009.68
2022-08-04T00:31:33.346Z,1009.68
2022-08-04T00:32:34.017Z,1009.66
2022-08-04T00:33:26.449Z,1009.67
2022-08-04T00:34:25.463Z,1009.70
2022-08-04T00:35:25.428Z,1009.66
2022-08-04T00:36:25.560Z,1009.65
2022-08-04T00:37:25.402Z,1009.64
2022-08-04T00:38:25.391Z,1009.66
2022-08-04T00:39:25.506Z,1009.69
2022-08-04T00:40:25.371Z,1009.68
2022-08-04T00:41:25.358Z,1009.69
2022-08-04T00:42:25.351Z,1009.68
2022-08-04T00:43:25.389Z,1009.68
2022-08-04T00:44:25.348Z,1009.69
2022-08-04T00:45:25.330Z,1009.68
2022-08-04T00:46:25.303Z,1009.63
2022-08-04T00:47:25.295Z,1009.63
2022-08-04T00:48:25.282Z,1009.66
2022-08-04T00:49:25.283Z,1009.72
2022-08-04T00:50:25.262Z,1009.64
2022-08-04T00:51:25.246Z,1009.65
2022-08-04T00:52:31.657Z,1009.65
2022-08-04T00:53:26.227Z,1009.62
2022-08-04T00:54:25.224Z,1009.67
2022-08-04T00:55:25.204Z,1009.66
2022-08-04T00:56:25.195Z,1009.66
2022-08-04T00:57:33.490Z,1009.64
2022-08-04T00:58:26.170Z,1009.69
2022-08-04T00:59:25.171Z,1009.72
2022-08-04T01:00:25.151Z,1009.70
2022-08-04T01:01:25.151Z,1009.70
2022-08-04T01:02:25.126Z,1009.71
2022-08-04T01:03:25.116Z,1009.70
2022-08-04T01:04:25.116Z,1009.69
2022-08-04T01:05:25.103Z,1009.70
2022-08-04T01:06:25.906Z,1009.67
2022-08-04T01:07:25.071Z,1009.65
2022-08-04T01:08:25.065Z,1009.65
2022-08-04T01:09:25.066Z,1009.72
2022-08-04T01:10:25.043Z,1009.69
2022-08-04T01:11:25.025Z,1009.66
2022-08-04T01:12:25.019Z,1009.68
2022-08-04T01:13:25.004Z,1009.68
2022-08-04T01:14:25.575Z,1009.66
2022-08-04T01:15:24.980Z,1009.66
2022-08-04T01:16:24.980Z,1009.64
2022-08-04T01:17:25.149Z,1009.65
2022-08-04T01:18:24.949Z,1009.64
2022-08-04T01:19:24.945Z,1009.64
2022-08-04T01:20:24.927Z,1009.63
2022-08-04T01:21:24.916Z,1009.64
2022-08-04T01:22:24.904Z,1009.64
2022-08-04T01:23:24.896Z,1009.63
2022-08-04T01:24:24.893Z,1009.62
2022-08-04T01:25:24.879Z,1009.62
2022-08-04T01:26:43.411Z,1009.60
2022-08-04T01:27:25.849Z,1009.61
2022-08-04T01:28:24.841Z,1009.63
2022-08-04T01:29:24.839Z,1009.66
2022-08-04T01:30:24.815Z,1009.66
2022-08-04T01:31:24.809Z,1009.63
2022-08-04T01:32:25.318Z,1009.66
2022-08-04T01:33:24.782Z,1009.63
2022-08-04T01:34:24.818Z,1009.65
2022-08-04T01:35:47.682Z,1009.67
2022-08-04T01:36:25.798Z,1009.64
2022-08-04T01:37:24.736Z,1009.64
2022-08-04T01:38:24.731Z,1009.59
2022-08-04T01:39:24.814Z,1009.59
2022-08-04T01:40:24.712Z,1009.67
2022-08-04T01:41:32.299Z,1009.65
2022-08-04T01:42:32.095Z,1009.62
2022-08-04T01:43:25.670Z,1009.67
2022-08-04T01:44:24.674Z,1009.65
2022-08-04T01:45:24.653Z,1009.64
2022-08-04T01:46:24.641Z,1009.67
2022-08-04T01:47:24.629Z,1009.68
2022-08-04T01:48:24.624Z,1009.69
2022-08-04T01:49:24.622Z,1009.68
2022-08-04T01:50:24.660Z,1009.66
2022-08-04T01:51:24.587Z,1009.68
2022-08-04T01:52:24.579Z,1009.70
2022-08-04T01:53:24.581Z,1009.67
2022-08-04T01:54:24.567Z,1009.70
2022-08-04T01:55:24.559Z,1009.67
2022-08-04T01:56:25.532Z,1009.69
2022-08-04T01:57:37.809Z,1009.70
2022-08-04T01:58:25.518Z,1009.67
2022-08-04T01:59:24.517Z,1009.68
2022-08-04T02:00:24.489Z,1009.65
2022-08-04T02:01:25.659Z,1009.67
2022-08-04T02:02:24.729Z,1009.65
2022-08-04T02:03:24.458Z,1009.61
2022-08-04T02:04:25.532Z,1009.61
2022-08-04T02:05:24.460Z,1009.62
2022-08-04T02:06:24.431Z,1009.63
2022-08-04T02:07:24.413Z,1009.65
2022-08-04T02:08:24.407Z,1009.69
2022-08-04T02:09:24.402Z,1009.63
2022-08-04T02:10:24.383Z,1009.64
2022-08-04T02:11:24.539Z,1009.65
2022-08-04T02:12:24.362Z,1009.64
2022-08-04T02:13:24.656Z,1009.63
2022-08-04T02:14:24.359Z,1009.60
2022-08-04T02:15:24.326Z,1009.61
2022-08-04T02:16:24.318Z,1009.59
2022-08-04T02:17:24.309Z,1009.58
2022-08-04T02:18:24.420Z,1009.62
2022-08-04T02:19:24.285Z,1009.62
2022-08-04T02:20:24.300Z,1009.61
2022-08-04T02:21:24.264Z,1009.57
2022-08-04T02:22:24.251Z,1009.57
2022-08-04T02:23:24.239Z,1009.57
2022-08-04T02:24:24.233Z,1009.58
2022-08-04T02:25:24.231Z,1009.55
2022-08-04T02:26:24.210Z,1009.52
2022-08-04T02:27:24.197Z,1009.54
2022-08-04T02:28:24.186Z,1009.54
2022-08-04T02:29:24.174Z,1009.50
2022-08-04T02:30:24.178Z,1009.51
2022-08-04T02:31:24.153Z,1009.52
2022-08-04T02:32:24.142Z,1009.51
2022-08-04T02:33:24.135Z,1009.47
2022-08-04T02:34:24.120Z,1009.49
2022-08-04T02:35:24.162Z,1009.48
2022-08-04T02:36:24.101Z,1009.43
2022-08-04T02:37:24.233Z,1009.49
2022-08-04T02:38:25.665Z,1009.48
2022-08-04T02:39:24.190Z,1009.45
2022-08-04T02:40:24.071Z,1009.43
2022-08-04T02:41:24.045Z,1009.40
2022-08-04T02:42:24.034Z,1009.42
2022-08-04T02:43:52.184Z,1009.42
2022-08-04T02:44:25.010Z,1009.39
2022-08-04T02:45:24.007Z,1009.40
2022-08-04T02:46:23.998Z,1009.38
2022-08-04T02:47:24.246Z,1009.41
2022-08-04T02:48:30.951Z,1009.40
2022-08-04T02:49:24.953Z,1009.37
2022-08-04T02:50:29.162Z,1009.37
2022-08-04T02:51:23.962Z,1009.38
2022-08-04T02:52:23.922Z,1009.37
2022-08-04T02:53:23.946Z,1009.40
2022-08-04T02:54:31.854Z,1009.39
2022-08-04T02:55:24.888Z,1009.40
2022-08-04T02:56:23.880Z,1009.35
2022-08-04T02:57:23.864Z,1009.35
2022-08-04T02:58:23.857Z,1009.37
2022-08-04T02:59:23.855Z,1009.36
2022-08-04T03:00:23.918Z,1009.38
2022-08-04T03:01:23.893Z,1009.36
2022-08-04T03:02:23.812Z,1009.37
2022-08-04T03:03:23.799Z,1009.36
2022-08-04T03:04:24.958Z,1009.38
2022-08-04T03:05:23.779Z,1009.37
2022-08-04T03:06:23.768Z,1009.37
2022-08-04T03:07:23.769Z,1009.36
2022-08-04T03:08:23.761Z,1009.36
2022-08-04T03:09:23.745Z,1009.38
2022-08-04T03:10:23.734Z,1009.37
2022-08-04T03:11:23.711Z,1009.33
2022-08-04T03:12:23.699Z,1009.33
2022-08-04T03:13:23.693Z,1009.35
2022-08-04T03:14:23.687Z,1009.39
2022-08-04T03:15:23.667Z,1009.42
2022-08-04T03:16:23.662Z,1009.41
2022-08-04T03:17:24.641Z,1009.38
2022-08-04T03:18:23.633Z,1009.40
2022-08-04T03:19:23.634Z,1009.39
2022-08-04T03:20:23.628Z,1009.41
2022-08-04T03:21:23.603Z,1009.40
2022-08-04T03:22:23.590Z,1009.42
2022-08-04T03:23:23.588Z,1009.41
2022-08-04T03:24:23.579Z,1009.38
2022-08-04T03:25:23.556Z,1009.41
2022-08-04T03:26:23.546Z,1009.39
2022-08-04T03:27:23.672Z,1009.35
2022-08-04T03:28:23.521Z,1009.40
2022-08-04T03:29:23.525Z,1009.39
2022-08-04T03:30:24.497Z,1009.44
2022-08-04T03:31:23.489Z,1009.40
2022-08-04T03:32:23.479Z,1009.38
2022-08-04T03:33:23.470Z,1009.37
2022-08-04T03:34:23.466Z,1009.38
2022-08-04T03:35:23.445Z,1009.34
2022-08-04T03:36:26.174Z,1009.35
2022-08-04T03:37:24.435Z,1009.36
2022-08-04T03:38:23.415Z,1009.39
2022-08-04T03:39:23.493Z,1009.39
2022-08-04T03:40:23.390Z,1009.37
2022-08-04T03:41:57.286Z,1009.41
2022-08-04T03:42:24.367Z,1009.39
2022-08-04T03:43:59.035Z,1009.37
2022-08-04T03:44:24.367Z,1009.39
2022-08-04T03:45:24.360Z,1009.44
2022-08-04T03:46:23.335Z,1009.41
2022-08-04T03:47:23.504Z,1009.39
2022-08-04T03:48:23.308Z,1009.41
2022-08-04T03:49:23.291Z,1009.39
2022-08-04T03:50:23.293Z,1009.39
2022-08-04T03:51:32.470Z,1009.43
2022-08-04T03:52:24.260Z,1009.40
2022-08-04T03:53:23.255Z,1009.42
2022-08-04T03:54:23.239Z,1009.39
2022-08-04T03:55:23.249Z,1009.40
2022-08-04T03:56:23.216Z,1009.43
2022-08-04T03:57:23.616Z,1009.45
2022-08-04T03:58:25.387Z,1009.45
2022-08-04T03:59:24.186Z,1009.46
2022-08-04T04:00:23.189Z,1009.43
2022-08-04T04:01:23.164Z,1009.45
2022-08-04T04:02:23.189Z,1009.47
2022-08-04T04:03:28.619Z,1009.45
2022-08-04T04:04:24.131Z,1009.42
2022-08-04T04:05:23.132Z,1009.42
2022-08-04T04:06:23.109Z,1009.44
2022-08-04T04:07:27.863Z,1009.41
2022-08-04T04:08:24.086Z,1009.40
2022-08-04T04:09:23.076Z,1009.39
2022-08-04T04:10:26.820Z,1009.39
2022-08-04T04:11:23.063Z,1009.38
2022-08-04T04:12:23.045Z,1009.41
2022-08-04T04:13:23.035Z,1009.43
2022-08-04T04:14:23.022Z,1009.40
2022-08-04T04:15:23.024Z,1009.41
2022-08-04T04:16:23.047Z,1009.44
2022-08-04T04:17:23.494Z,1009.44
2022-08-04T04:18:22.979Z,1009.42
2022-08-04T04:19:23.036Z,1009.43
2022-08-04T04:20:22.971Z,1009.43
2022-08-04T04:21:22.947Z,1009.46
2022-08-04T04:22:22.934Z,1009.44
2022-08-04T04:23:22.925Z,1009.41
2022-08-04T04:24:22.913Z,1009.39
2022-08-04T04:25:22.916Z,1009.38
2022-08-04T04:26:22.891Z,1009.43
2022-08-04T04:27:30.553Z,1009.42
2022-08-04T04:28:43.770Z,1009.43
2022-08-04T04:29:23.862Z,1009.45
2022-08-04T04:30:22.858Z,1009.46
2022-08-04T04:31:22.840Z,1009.48
2022-08-04T04:32:22.828Z,1009.46
2022-08-04T04:33:22.816Z,1009.50
2022-08-04T04:34:22.817Z,1009.48
2022-08-04T04:35:22.798Z,1009.51
2022-08-04T04:36:22.783Z,1009.55
2022-08-04T04:37:23.189Z,1009.50
2022-08-04T04:38:22.763Z,1009.51
2022-08-04T04:39:22.806Z,1009.52
2022-08-04T04:40:22.751Z,1009.52
2022-08-04T04:41:22.735Z,1009.53
2022-08-04T04:42:22.720Z,1009.50
2022-08-04T04:43:22.715Z,1009.54
2022-08-04T04:44:27.451Z,1009.55
2022-08-04T04:45:23.698Z,1009.54
2022-08-04T04:46:22.674Z,1009.54
2022-08-04T04:48:07.254Z,1009.51
2022-08-04T04:48:23.651Z,1009.55
2022-08-04T04:49:22.657Z,1009.56
2022-08-04T04:50:22.648Z,1009.57
2022-08-04T04:51:23.620Z,1009.58
2022-08-04T04:52:22.613Z,1009.56
2022-08-04T04:53:22.626Z,1009.57
2022-08-04T04:54:22.591Z,1009.42
2022-08-04T04:55:22.590Z,1009.48
2022-08-04T04:56:22.593Z,1009.48
2022-08-04T04:57:53.490Z,1009.49
2022-08-04T04:58:23.630Z,1009.47
2022-08-04T04:59:22.536Z,1009.50
2022-08-04T05:00:22.538Z,1009.52
2022-08-04T05:01:22.517Z,1009.51
2022-08-04T05:02:22.502Z,1009.55
2022-08-04T05:03:22.494Z,1009.52
2022-08-04T05:04:22.483Z,1009.52
2022-08-04T05:05:22.483Z,1009.47
2022-08-04T05:06:22.462Z,1009.44
2022-08-04T05:07:22.817Z,1009.49
2022-08-04T05:08:45.027Z,1009.48
2022-08-04T05:09:23.432Z,1009.51
2022-08-04T05:10:22.427Z,1009.48
2022-08-04T05:11:22.410Z,1009.50
2022-08-04T05:14:32.293Z,1009.47
2022-08-04T05:14:38.494Z,1009.49
2022-08-04T05:14:38.768Z,1009.49
2022-08-04T05:15:25.583Z,1009.51
2022-08-04T05:16:22.354Z,1009.51
2022-08-04T05:17:22.698Z,1009.57
2022-08-04T05:18:22.334Z,1009.58
2022-08-04T05:19:22.323Z,1009.54
2022-08-04T05:20:22.318Z,1009.63
2022-08-04T05:21:22.301Z,1009.61
2022-08-04T05:22:22.290Z,1009.62
2022-08-04T05:23:22.281Z,1009.63
2022-08-04T05:24:22.269Z,1009.55
2022-08-04T05:25:22.316Z,1009.55
2022-08-04T05:26:22.246Z,1009.59
2022-08-04T05:27:22.529Z,1009.63
2022-08-04T05:28:22.226Z,1009.58
2022-08-04T05:29:22.215Z,1009.59
2022-08-04T05:30:23.215Z,1009.58
2022-08-04T05:31:22.194Z,1009.59
2022-08-04T05:32:22.184Z,1009.57
2022-08-04T05:33:24.904Z,1009.57
2022-08-04T05:34:23.161Z,1009.54
2022-08-04T05:35:50.412Z,1009.58
2022-08-04T05:36:39.931Z,1009.62
2022-08-04T05:37:23.409Z,1009.58
2022-08-04T05:38:23.118Z,1009.58
2022-08-04T05:39:22.205Z,1009.55
2022-08-04T05:40:22.114Z,1009.59
2022-08-04T05:41:22.087Z,1009.60
2022-08-04T05:42:22.088Z,1009.57
2022-08-04T05:43:22.067Z,1009.59
2022-08-04T05:44:22.053Z,1009.56
2022-08-04T05:45:22.057Z,1009.54
2022-08-04T05:46:22.032Z,1009.54
2022-08-04T05:47:22.498Z,1009.52
2022-08-04T05:48:22.011Z,1009.55
2022-08-04T05:49:22.264Z,1009.54
2022-08-04T05:50:22.001Z,1009.53
2022-08-04T05:51:21.979Z,1009.56
2022-08-04T05:52:21.975Z,1009.58
2022-08-04T05:53:21.959Z,1009.56
2022-08-04T05:54:21.946Z,1009.59
2022-08-04T05:55:58.133Z,1009.61
2022-08-04T05:56:22.925Z,1009.58
2022-08-04T05:57:22.301Z,1009.60
2022-08-04T05:58:21.903Z,1009.57
2022-08-04T05:59:21.895Z,1009.59
2022-08-04T06:00:40.342Z,1009.58
2022-08-04T06:01:22.881Z,1009.59
2022-08-04T06:02:21.925Z,1009.60
2022-08-04T06:03:21.855Z,1009.57
2022-08-04T06:04:21.840Z,1009.58
2022-08-04T06:05:21.843Z,1009.52
2022-08-04T06:06:21.841Z,1009.56
2022-08-04T06:07:22.035Z,1009.48
2022-08-04T06:08:21.796Z,1009.47
2022-08-04T06:09:21.789Z,1009.49
2022-08-04T06:10:26.827Z,1009.50
2022-08-04T06:11:22.767Z,1009.49
2022-08-04T06:12:21.754Z,1009.51
2022-08-04T06:13:48.284Z,1009.52
2022-08-04T06:14:22.733Z,1009.54
2022-08-04T06:15:21.735Z,1009.56
2022-08-04T06:16:30.011Z,1009.56
2022-08-04T06:18:35.585Z,1009.59
2022-08-04T06:19:57.098Z,1009.55
2022-08-04T06:20:03.530Z,1009.58
2022-08-04T06:20:23.169Z,1009.62
2022-08-04T06:21:21.665Z,1009.62
2022-08-04T06:22:21.646Z,1009.61
2022-08-04T06:23:21.639Z,1009.66
2022-08-04T06:24:21.628Z,1009.67
2022-08-04T06:25:21.626Z,1009.63
2022-08-04T06:26:21.605Z,1009.65
2022-08-04T06:27:21.828Z,1009.65
2022-08-04T06:28:21.584Z,1009.66
2022-08-04T06:29:21.577Z,1009.67
2022-08-04T06:30:21.583Z,1009.64
2022-08-04T06:32:29.846Z,1009.66
2022-08-04T06:32:30.733Z,1009.64
2022-08-04T06:33:22.567Z,1009.68
2022-08-04T06:34:21.523Z,1009.68
2022-08-04T06:35:21.524Z,1009.69
2022-08-04T06:36:21.506Z,1009.68
2022-08-04T06:37:41.415Z,1009.68
2022-08-04T06:38:22.481Z,1009.69
2022-08-04T06:39:21.489Z,1009.69
2022-08-04T06:40:31.541Z,1009.64
2022-08-04T06:41:22.450Z,1009.67
2022-08-04T06:42:23.034Z,1009.68
2022-08-04T06:43:21.440Z,1009.66
2022-08-04T06:44:25.974Z,1009.66
2022-08-04T06:45:21.422Z,1009.65
2022-08-04T06:46:21.396Z,1009.65
2022-08-04T06:47:21.685Z,1009.65
2022-08-04T06:48:21.370Z,1009.65
2022-08-04T06:49:21.363Z,1009.62
2022-08-04T06:51:24.917Z,1009.63
2022-08-04T06:51:30.200Z,1009.63
2022-08-04T06:52:22.330Z,1009.61
2022-08-04T06:53:21.321Z,1009.61
2022-08-04T06:54:21.309Z,1009.58
2022-08-04T06:55:21.317Z,1009.63
2022-08-04T06:56:21.287Z,1009.66
2022-08-04T06:57:21.496Z,1009.61
2022-08-04T06:58:21.268Z,1009.61
2022-08-04T06:59:21.259Z,1009.60
2022-08-04T07:00:21.258Z,1009.62
2022-08-04T07:01:21.313Z,1009.60
2022-08-04T07:02:21.235Z,1009.65
2022-08-04T07:03:21.215Z,1009.62
2022-08-04T07:04:21.212Z,1009.67
2022-08-04T07:05:21.214Z,1009.64
2022-08-04T07:06:21.188Z,1009.60
2022-08-04T07:07:21.502Z,1009.62
2022-08-04T07:08:22.164Z,1009.63
2022-08-04T07:09:21.152Z,1009.66
2022-08-04T07:10:22.387Z,1009.62
2022-08-04T07:11:21.133Z,1009.66
2022-08-04T07:12:21.125Z,1009.59
2022-08-04T07:13:21.117Z,1009.63
2022-08-04T07:14:21.104Z,1009.63
2022-08-04T07:15:21.108Z,1009.60
2022-08-04T07:16:21.080Z,1009.59
2022-08-04T07:17:22.333Z,1009.59
2022-08-04T07:18:21.065Z,1009.61
2022-08-04T07:19:21.051Z,1009.62
2022-08-04T07:20:34.845Z,1009.60
2022-08-04T07:21:22.033Z,1009.65
2022-08-04T07:22:25.677Z,1009.59
2022-08-04T07:23:21.013Z,1009.61
2022-08-04T07:24:21.000Z,1009.58
2022-08-04T07:25:22.162Z,1009.61
2022-08-04T07:26:21.977Z,1009.61
2022-08-04T07:27:48.319Z,1009.56
2022-08-04T07:28:21.957Z,1009.56
2022-08-04T07:29:20.951Z,1009.57
2022-08-04T07:30:24.756Z,1009.55
2022-08-04T07:31:34.427Z,1009.56
2022-08-04T07:32:21.921Z,1009.58
2022-08-04T07:33:20.931Z,1009.60
2022-08-04T07:34:22.311Z,1009.56
2022-08-04T07:36:09.548Z,1009.56
2022-08-04T07:36:21.880Z,1009.53
2022-08-04T07:37:22.239Z,1009.49
2022-08-04T07:38:27.480Z,1009.51
2022-08-04T07:39:28.133Z,1009.53
2022-08-04T07:40:21.858Z,1009.52
2022-08-04T07:41:36.522Z,1009.52
2022-08-04T07:42:21.825Z,1009.55
2022-08-04T07:43:20.867Z,1009.54
2022-08-04T07:44:20.799Z,1009.50
2022-08-04T07:45:20.805Z,1009.55
2022-08-04T07:46:20.781Z,1009.58
2022-08-04T07:47:25.168Z,1009.53
2022-08-04T07:48:20.760Z,1009.61
2022-08-04T07:49:54.669Z,1009.58
2022-08-04T07:50:21.749Z,1009.55
2022-08-04T07:51:20.733Z,1009.53
2022-08-04T07:52:20.720Z,1009.50
2022-08-04T07:53:55.284Z,1009.53
2022-08-04T07:54:21.700Z,1009.53
2022-08-04T07:55:20.701Z,1009.50
2022-08-04T07:56:20.681Z,1009.55
2022-08-04T07:57:41.577Z,1009.58
2022-08-04T07:58:21.660Z,1009.58
2022-08-04T07:59:20.651Z,1009.58
2022-08-04T08:00:20.658Z,1009.55
2022-08-04T08:01:20.634Z,1009.55
2022-08-04T08:02:20.627Z,1009.50
2022-08-04T08:03:21.898Z,1009.58
2022-08-04T08:04:20.615Z,1009.50
2022-08-04T08:05:20.600Z,1009.43
2022-08-04T08:06:33.343Z,1009.47
2022-08-04T08:07:21.785Z,1009.49
2022-08-04T08:08:20.564Z,1009.51
2022-08-04T08:09:20.574Z,1009.48
2022-08-04T08:10:20.544Z,1009.48
2022-08-04T08:11:20.537Z,1009.54
2022-08-04T08:12:37.063Z,1009.50
2022-08-04T08:13:21.519Z,1009.49
2022-08-04T08:14:20.528Z,1009.46
2022-08-04T08:15:20.513Z,1009.45
2022-08-04T08:16:20.491Z,1009.49
2022-08-04T08:17:20.759Z,1009.52
2022-08-04T08:18:20.479Z,1009.49
2022-08-04T08:19:20.462Z,1009.48
2022-08-04T08:20:29.400Z,1009.45
2022-08-04T08:21:21.448Z,1009.46
2022-08-04T08:22:20.435Z,1009.42
2022-08-04T08:23:21.787Z,1009.37
2022-08-04T08:24:20.417Z,1009.37
2022-08-04T08:25:20.419Z,1009.41
2022-08-04T08:26:20.399Z,1009.39
2022-08-04T08:27:20.549Z,1009.39
2022-08-04T08:28:20.381Z,1009.43
2022-08-04T08:29:20.373Z,1009.42
2022-08-04T08:30:20.465Z,1009.42
2022-08-04T08:31:20.351Z,1009.40
2022-08-04T08:32:21.344Z,1009.47
2022-08-04T08:33:20.343Z,1009.44
2022-08-04T08:34:27.540Z,1009.43
2022-08-04T08:35:21.324Z,1009.43
2022-08-04T08:36:20.308Z,1009.42
2022-08-04T08:37:20.593Z,1009.43
2022-08-04T08:38:20.290Z,1009.37
2022-08-04T08:39:24.465Z,1009.38
2022-08-04T08:40:39.210Z,1009.41
2022-08-04T08:41:21.262Z,1009.39
2022-08-04T08:42:20.254Z,1009.44
2022-08-04T08:44:00.281Z,1009.35
2022-08-04T08:44:30.142Z,1009.35
2022-08-04T08:45:21.264Z,1009.34
2022-08-04T08:46:38.719Z,1009.40
2022-08-04T08:47:21.580Z,1009.31
2022-08-04T08:48:20.197Z,1009.33
2022-08-04T08:50:00.141Z,1009.32
2022-08-04T08:50:21.190Z,1009.33
2022-08-04T08:51:20.174Z,1009.36
2022-08-04T08:52:55.317Z,1009.30
2022-08-04T08:53:21.150Z,1009.32
2022-08-04T08:54:20.146Z,1009.32
2022-08-04T08:55:20.147Z,1009.28
2022-08-04T08:56:20.133Z,1009.30
2022-08-04T08:57:21.344Z,1009.30
2022-08-04T08:58:20.113Z,1009.29
2022-08-04T08:59:20.104Z,1009.29
2022-08-04T09:00:20.117Z,1009.32
2022-08-04T09:01:20.132Z,1009.30
2022-08-04T09:02:20.073Z,1009.33
2022-08-04T09:03:20.065Z,1009.27
2022-08-04T09:04:22.755Z,1009.26
2022-08-04T09:05:20.060Z,1009.33
2022-08-04T09:06:20.037Z,1009.32
2022-08-04T09:07:20.315Z,1009.29
2022-08-04T09:08:20.023Z,1009.27
2022-08-04T09:09:20.011Z,1009.24
2022-08-04T09:10:20.051Z,1009.28
2022-08-04T09:11:19.993Z,1009.25
2022-08-04T09:12:25.516Z,1009.28
2022-08-04T09:13:20.973Z,1009.25
2022-08-04T09:14:19.968Z,1009.33
2022-08-04T09:15:20.005Z,1009.32
2022-08-04T09:16:19.995Z,1009.28
2022-08-04T09:17:20.277Z,1009.30
2022-08-04T09:18:19.940Z,1009.28
2022-08-04T09:19:38.066Z,1009.30
2022-08-04T09:20:20.927Z,1009.30
2022-08-04T09:21:19.905Z,1009.30
2022-08-04T09:22:19.901Z,1009.30
2022-08-04T09:23:19.888Z,1009.29
2022-08-04T09:24:36.106Z,1009.30
2022-08-04T09:25:20.879Z,1009.30
2022-08-04T09:26:19.864Z,1009.34
2022-08-04T09:27:20.251Z,1009.39
2022-08-04T09:28:37.122Z,1009.30
2022-08-04T09:29:20.839Z,1009.34
2022-08-04T09:30:19.836Z,1009.30
2022-08-04T09:31:19.825Z,1009.23
2022-08-04T09:32:19.811Z,1009.20
2022-08-04T09:33:22.674Z,1009.20
2022-08-04T09:34:20.797Z,1009.19
2022-08-04T09:35:19.802Z,1009.21
2022-08-04T09:36:25.697Z,1009.20
2022-08-04T09:37:20.934Z,1009.17
2022-08-04T09:38:19.757Z,1009.21
2022-08-04T09:39:19.795Z,1009.23
2022-08-04T09:40:31.171Z,1009.24
2022-08-04T09:41:48.090Z,1009.22
2022-08-04T09:42:25.717Z,1009.22
2022-08-04T09:43:20.713Z,1009.21
2022-08-04T09:44:51.016Z,1009.23
2022-08-04T09:45:26.738Z,1009.24
2022-08-04T09:46:20.727Z,1009.23
2022-08-04T09:47:19.679Z,1009.25
2022-08-04T09:48:19.674Z,1009.25
2022-08-04T09:49:19.708Z,1009.26
2022-08-04T09:50:19.691Z,1009.23
2022-08-04T09:51:19.647Z,1009.23
2022-08-04T09:52:19.871Z,1009.22
2022-08-04T09:53:19.630Z,1009.24
2022-08-04T09:54:30.198Z,1009.20
2022-08-04T09:55:20.631Z,1009.18
2022-08-04T09:56:19.667Z,1009.17
2022-08-04T09:57:19.603Z,1009.18
2022-08-04T09:58:19.606Z,1009.17
2022-08-04T09:59:19.581Z,1009.18
2022-08-04T10:00:19.594Z,1009.21
2022-08-04T10:01:23.428Z,1009.17
2022-08-04T10:02:19.981Z,1009.18
2022-08-04T10:03:20.472Z,1009.17
2022-08-04T10:04:19.532Z,1009.18
2022-08-04T10:05:19.539Z,1009.12
2022-08-04T10:06:19.571Z,1009.13
2022-08-04T10:07:19.704Z,1009.14
2022-08-04T10:08:19.505Z,1009.15
2022-08-04T10:09:19.489Z,1009.16
2022-08-04T10:10:19.494Z,1009.13
2022-08-04T10:11:19.479Z,1009.10
2022-08-04T10:12:19.466Z,1009.11
2022-08-04T10:13:19.455Z,1009.13
2022-08-04T10:14:23.015Z,1009.10
2022-08-04T10:15:19.451Z,1009.10
2022-08-04T10:16:19.505Z,1008.99
2022-08-04T10:17:19.601Z,1008.98
2022-08-04T10:18:19.412Z,1009.01
2022-08-04T10:19:19.400Z,1008.98
2022-08-04T10:20:36.599Z,1009.00
2022-08-04T10:21:20.386Z,1008.96
2022-08-04T10:22:28.692Z,1009.04
2022-08-04T10:23:20.409Z,1008.99
2022-08-04T10:24:19.362Z,1009.03
2022-08-04T10:26:03.142Z,1008.99
2022-08-04T10:26:20.342Z,1009.01
2022-08-04T10:27:19.547Z,1009.02
2022-08-04T10:28:19.328Z,1008.98
2022-08-04T10:29:19.324Z,1008.96
2022-08-04T10:30:19.322Z,1008.96
2022-08-04T10:31:19.302Z,1008.91
2022-08-04T10:32:19.295Z,1008.91
2022-08-04T10:33:19.282Z,1008.90
2022-08-04T10:34:19.272Z,1008.85
2022-08-04T10:35:19.277Z,1008.79
2022-08-04T10:36:19.257Z,1008.84
2022-08-04T10:37:19.432Z,1008.85
2022-08-04T10:38:21.848Z,1008.85
2022-08-04T10:39:43.422Z,1008.83
2022-08-04T10:40:20.266Z,1008.90
2022-08-04T10:41:19.211Z,1008.80
2022-08-04T10:42:19.201Z,1008.84
2022-08-04T10:43:22.271Z,1008.79
2022-08-04T10:44:19.182Z,1008.83
2022-08-04T10:45:19.180Z,1008.77
2022-08-04T10:46:19.168Z,1008.75
2022-08-04T10:47:19.281Z,1008.79
2022-08-04T10:48:19.142Z,1008.73
2022-08-04T10:49:21.696Z,1008.75
2022-08-04T10:50:19.139Z,1008.69
2022-08-04T10:51:19.114Z,1008.70
2022-08-04T10:52:19.109Z,1008.74
2022-08-04T10:53:19.094Z,1008.68
2022-08-04T10:54:19.090Z,1008.69
2022-08-04T10:55:19.085Z,1008.71
2022-08-04T10:56:19.068Z,1008.62
2022-08-04T10:57:19.236Z,1008.62
2022-08-04T10:58:19.046Z,1008.66
2022-08-04T10:59:19.057Z,1008.63
2022-08-04T11:00:19.041Z,1008.57
2022-08-04T11:02:02.110Z,1008.59
2022-08-04T11:02:20.021Z,1008.61
2022-08-04T11:03:19.069Z,1008.56
2022-08-04T11:04:27.013Z,1008.57
2022-08-04T11:05:19.988Z,1008.54
2022-08-04T11:06:18.974Z,1008.58
2022-08-04T11:07:19.011Z,1008.51
2022-08-04T11:08:21.809Z,1008.51
2022-08-04T11:09:18.941Z,1008.48
2022-08-04T11:10:18.947Z,1008.52
2022-08-04T11:11:18.922Z,1008.51
2022-08-04T11:12:18.912Z,1008.55
2022-08-04T11:13:22.030Z,1008.53
2022-08-04T11:14:19.887Z,1008.52
2022-08-04T11:15:18.888Z,1008.48
2022-08-04T11:16:18.871Z,1008.42
2022-08-04T11:17:19.043Z,1008.39
2022-08-04T11:18:18.856Z,1008.37
2022-08-04T11:19:18.896Z,1008.33
2022-08-04T11:20:34.591Z,1008.38
2022-08-04T11:21:19.820Z,1008.33
2022-08-04T11:22:18.811Z,1008.36
2022-08-04T11:23:18.797Z,1008.37
2022-08-04T11:24:18.791Z,1008.37
2022-08-04T11:25:18.793Z,1008.44
2022-08-04T11:26:18.769Z,1008.39
2022-08-04T11:27:18.759Z,1008.38
2022-08-04T11:28:18.753Z,1008.48
2022-08-04T11:29:18.785Z,1008.41
2022-08-04T11:30:18.742Z,1008.34
2022-08-04T11:31:18.721Z,1008.37
2022-08-04T11:32:18.710Z,1008.37
2022-08-04T11:33:18.703Z,1008.34
2022-08-04T11:34:18.689Z,1008.29
2022-08-04T11:35:18.689Z,1008.29
2022-08-04T11:36:18.674Z,1008.27
2022-08-04T11:37:18.657Z,1008.29
2022-08-04T11:38:18.653Z,1008.32
2022-08-04T11:39:18.753Z,1008.34
2022-08-04T11:40:18.642Z,1008.34
2022-08-04T11:41:18.662Z,1008.31
2022-08-04T11:42:18.648Z,1008.29
2022-08-04T11:43:18.600Z,1008.28
2022-08-04T11:44:19.590Z,1008.28
2022-08-04T11:45:18.589Z,1008.28
2022-08-04T11:46:18.621Z,1008.20
2022-08-04T11:47:18.564Z,1008.19
2022-08-04T11:48:18.551Z,1008.24
2022-08-04T11:49:18.538Z,1008.22
2022-08-04T11:50:18.538Z,1008.23
2022-08-04T11:51:18.518Z,1008.23
2022-08-04T11:52:18.530Z,1008.30
2022-08-04T11:53:18.550Z,1008.30
2022-08-04T11:54:18.550Z,1008.29
2022-08-04T11:55:18.679Z,1008.31
2022-08-04T11:56:32.349Z,1008.31
2022-08-04T11:57:19.767Z,1008.25
2022-08-04T11:58:18.451Z,1008.23
2022-08-04T11:59:18.440Z,1008.23
2022-08-04T12:00:18.447Z,1008.26
2022-08-04T12:01:19.880Z,1008.21
2022-08-04T12:02:21.132Z,1008.24
2022-08-04T12:03:18.401Z,1008.28
2022-08-04T12:04:18.411Z,1008.26
2022-08-04T12:05:32.408Z,1008.22